Estación de San Rafael
Ultimos registro cada 15 minutos 56
| N° | Estación | Fecha / Hora | Temperatura | Humedad | Lluvia | Velocidad | Dirección | Radiación | Presion |
| 56 | San Rafael | 06-09-2026 14:45 | 19,9 | 45,8 | 0 | 0 | 183 | 915,6 | 993,1 |
| 55 | San Rafael | 06-09-2026 14:30 | 19,8 | 47,2 | 0 | 0 | 181 | 396,9 | 993,3 |
| 54 | San Rafael | 06-09-2026 14:15 | 18,2 | 48,9 | 0 | 0,5 | 170 | 61,9 | 993,5 |
| 53 | San Rafael | 06-09-2026 14:00 | 17,5 | 48,4 | 0 | 0 | 140 | 59,4 | 993,9 |
| 52 | San Rafael | 06-09-2026 13:45 | 16,5 | 52,3 | 0 | 0 | 145 | 59,4 | 994 |
| 51 | San Rafael | 06-09-2026 13:30 | 16,5 | 52,3 | 0 | 0,5 | 194 | 59,4 | 994,2 |
| 50 | San Rafael | 06-09-2026 13:15 | 15,4 | 50,8 | 0 | 0,5 | 156 | 59,4 | 994,4 |
| 49 | San Rafael | 06-09-2026 13:00 | 16 | 52,1 | 0 | 0 | 114 | 59,4 | 994,4 |
| 48 | San Rafael | 06-09-2026 12:45 | 15,2 | 51,3 | 0 | 0,5 | 204 | 58,1 | 994,7 |
| 47 | San Rafael | 06-09-2026 12:30 | 13,9 | 54,8 | 0 | 0,5 | 174 | 58,1 | 994,8 |
| 46 | San Rafael | 06-09-2026 12:15 | 13,7 | 55,2 | 0 | 0 | 163 | 58,1 | 994,8 |
| 45 | San Rafael | 06-09-2026 12:00 | 13,1 | 55,3 | 0 | 0,5 | 164 | 58,1 | 994,9 |
| 44 | San Rafael | 06-09-2026 11:45 | 13,2 | 56,1 | 0 | 0,5 | 173 | 59,4 | 994,5 |
| 43 | San Rafael | 06-09-2026 11:30 | 12,4 | 61,4 | 0 | 0 | 147 | 128,1 | 994,7 |
| 42 | San Rafael | 06-09-2026 11:15 | 12 | 64,6 | 0 | 0 | 192 | 479,4 | 994,7 |
| 41 | San Rafael | 06-09-2026 11:00 | 11,7 | 66,9 | 0 | 0 | 173 | 680,6 | 994,8 |
| 40 | San Rafael | 06-09-2026 10:45 | 9,1 | 70,9 | 0 | 0 | 157 | 658,1 | 995 |
| 39 | San Rafael | 06-09-2026 10:30 | 9,3 | 74,1 | 0 | 0 | 149 | 604,4 | 995 |
| 38 | San Rafael | 06-09-2026 10:15 | 7,8 | 76,5 | 0 | 0 | 131 | 548,1 | 995 |
| 37 | San Rafael | 06-09-2026 10:00 | 8,3 | 83,1 | 0 | 0 | 58 | 491,9 | 995 |
| 36 | San Rafael | 06-09-2026 09:45 | 6,6 | 96 | 0 | 0 | 58 | 371,9 | 995 |
| 35 | San Rafael | 06-09-2026 09:30 | 7,8 | 97,3 | 0 | 0 | 58 | 373,1 | 994,8 |
| 34 | San Rafael | 06-09-2026 09:15 | 6 | 99,6 | 0 | 0 | 58 | 313,1 | 994,4 |
| 33 | San Rafael | 06-09-2026 09:00 | 3,6 | 99,5 | 0 | 0 | 58 | 255,6 | 994,6 |
| 32 | San Rafael | 06-09-2026 08:45 | 2,2 | 99,9 | 0 | 0 | 58 | 198,1 | 994,5 |
| 31 | San Rafael | 06-09-2026 08:30 | 1,5 | 100 | 0 | 0 | 58 | 104,4 | 994,6 |
| 30 | San Rafael | 06-09-2026 08:15 | -0,1 | 100 | 0 | 0 | 58 | 60,6 | 994,6 |
| 29 | San Rafael | 06-09-2026 08:00 | -0,6 | 100 | 0 | 0 | 58 | 5,6 | 994,7 |
| 28 | San Rafael | 06-09-2026 07:45 | -0,7 | 100 | 0 | 0 | 58 | 0,6 | 994,6 |
| 27 | San Rafael | 06-09-2026 07:30 | -0,8 | 100 | 0 | 0 | 58 | 0,6 | 994,6 |
| 26 | San Rafael | 06-09-2026 07:15 | -0,6 | 100 | 0 | 0 | 58 | 0,6 | 994,5 |
| 25 | San Rafael | 06-09-2026 07:00 | -0,5 | 100 | 0 | 0 | 58 | 0,6 | 994,6 |
| 24 | San Rafael | 06-09-2026 06:45 | -0,3 | 99,9 | 0 | 0 | 58 | 0,6 | 994,5 |
| 23 | San Rafael | 06-09-2026 06:30 | -0,6 | 99,8 | 0 | 0 | 58 | 0,6 | 994,4 |
| 22 | San Rafael | 06-09-2026 06:15 | -0,5 | 99,8 | 0 | 0 | 58 | 0,6 | 994,5 |
| 21 | San Rafael | 06-09-2026 06:00 | 0 | 99,9 | 0 | 0 | 58 | 0,6 | 994,3 |
| 20 | San Rafael | 06-09-2026 05:45 | -0,1 | 99,8 | 0 | 0 | 58 | 0,6 | 994,8 |
| 19 | San Rafael | 06-09-2026 05:30 | 0,2 | 99,9 | 0 | 0 | 58 | 0,6 | 994,4 |
| 18 | San Rafael | 06-09-2026 05:15 | 0,1 | 99,8 | 0 | 0 | 58 | 0,6 | 994,4 |
| 17 | San Rafael | 06-09-2026 05:00 | 0,2 | 99,5 | 0 | 0 | 58 | 0,6 | 994,4 |
| 16 | San Rafael | 06-09-2026 04:45 | 0,7 | 99,7 | 0 | 0 | 58 | 0,6 | 994,4 |
| 15 | San Rafael | 06-09-2026 04:30 | 0,3 | 99,6 | 0 | 0 | 58 | 0,6 | 994,5 |
| 14 | San Rafael | 06-09-2026 04:15 | 0,5 | 99,5 | 0 | 0 | 58 | 0,6 | 994,6 |
| 13 | San Rafael | 06-09-2026 04:00 | 0,6 | 99,4 | 0 | 0 | 58 | 0,6 | 994,8 |
| 12 | San Rafael | 06-09-2026 03:45 | 1,2 | 99,4 | 0 | 0 | 58 | 0,6 | 994,9 |
| 11 | San Rafael | 06-09-2026 03:30 | 1,5 | 99,4 | 0 | 0 | 58 | 0,6 | 995,2 |
| 10 | San Rafael | 06-09-2026 03:15 | 1,7 | 99,4 | 0 | 0 | 58 | 0,6 | 995,2 |
| 9 | San Rafael | 06-09-2026 03:00 | 1,8 | 99,3 | 0 | 0 | 58 | 0,6 | 995,5 |
| 8 | San Rafael | 06-09-2026 02:45 | 2,2 | 99,2 | 0 | 0 | 58 | 0,6 | 995,7 |
| 7 | San Rafael | 06-09-2026 02:30 | 2,2 | 99,3 | 0 | 0 | 58 | 0,6 | 995,8 |
| 6 | San Rafael | 06-09-2026 02:15 | 2,1 | 99 | 0 | 0 | 58 | 0,6 | 996 |
| 5 | San Rafael | 06-09-2026 02:00 | 2 | 98,9 | 0 | 0 | 58 | 0,6 | 996,1 |
| 4 | San Rafael | 06-09-2026 01:45 | 2,4 | 98,7 | 0 | 0 | 58 | 0,6 | 996,2 |
| 3 | San Rafael | 06-09-2026 01:30 | 2,7 | 98,5 | 0 | 0 | 58 | 0,6 | 996,2 |
| 2 | San Rafael | 06-09-2026 01:15 | 3,1 | 98,7 | 0 | 0 | 58 | 0,6 | 996,3 |
| 1 | San Rafael | 06-09-2026 01:00 | 3,1 | 98,4 | 0 | 0 | 58 | 0,6 | 996,3 |